createdAt,value
2023-07-24T00:03:00.173Z,18.33
2023-07-24T00:05:46.579Z,18.29
2023-07-24T00:08:32.713Z,18.27
2023-07-24T00:11:18.909Z,18.22
2023-07-24T00:14:05.131Z,18.15
2023-07-24T00:16:51.517Z,18.10
2023-07-24T00:19:36.935Z,18.01
2023-07-24T00:22:23.061Z,18.08
2023-07-24T00:25:10.262Z,18.06
2023-07-24T00:27:56.656Z,18.09
2023-07-24T00:30:43.676Z,18.09
2023-07-24T00:33:29.908Z,17.92
2023-07-24T00:36:15.569Z,18.01
2023-07-24T00:39:01.581Z,17.97
2023-07-24T00:41:50.124Z,17.77
2023-07-24T00:44:36.102Z,17.95
2023-07-24T00:47:22.716Z,17.78
2023-07-24T00:50:09.598Z,17.80
2023-07-24T00:52:55.729Z,17.74
2023-07-24T00:55:42.853Z,17.62
2023-07-24T00:58:29.307Z,17.70
2023-07-24T01:01:18.216Z,17.78
2023-07-24T01:04:05.583Z,17.73
2023-07-24T01:06:52.383Z,17.73
2023-07-24T01:09:37.980Z,17.65
2023-07-24T01:12:33.454Z,17.70
2023-07-24T01:15:28.878Z,17.68
2023-07-24T01:18:17.241Z,17.62
2023-07-24T01:21:03.253Z,17.63
2023-07-24T01:24:35.208Z,17.43
2023-07-24T01:27:25.659Z,17.72
2023-07-24T01:30:12.969Z,17.72
2023-07-24T01:32:58.368Z,17.66
2023-07-24T01:35:45.125Z,17.60
2023-07-24T01:38:35.745Z,17.75
2023-07-24T01:41:22.320Z,17.76
2023-07-24T01:44:07.842Z,17.71
2023-07-24T01:46:53.993Z,17.80
2023-07-24T01:49:40.024Z,17.80
2023-07-24T01:52:27.456Z,17.67
2023-07-24T01:55:13.528Z,17.74
2023-07-24T01:57:59.788Z,17.64
2023-07-24T02:00:45.191Z,17.77
2023-07-24T02:03:31.251Z,17.77
2023-07-24T02:06:16.998Z,17.84
2023-07-24T02:09:03.565Z,17.89
2023-07-24T02:11:49.467Z,17.88
2023-07-24T02:14:35.324Z,17.91
2023-07-24T02:17:21.159Z,17.68
2023-07-24T02:20:07.660Z,17.91
2023-07-24T02:23:02.859Z,17.93
2023-07-24T02:25:52.369Z,17.90
2023-07-24T02:28:38.168Z,17.94
2023-07-24T02:31:24.377Z,17.86
2023-07-24T02:34:10.384Z,17.76
2023-07-24T02:36:56.404Z,17.86
2023-07-24T02:39:42.270Z,18.06
2023-07-24T02:42:28.261Z,18.07
2023-07-24T02:45:14.380Z,18.07
2023-07-24T02:48:01.169Z,18.10
2023-07-24T02:50:50.961Z,18.01
2023-07-24T02:53:36.855Z,18.09
2023-07-24T02:56:22.957Z,18.09
2023-07-24T02:59:09.092Z,18.06
2023-07-24T03:01:54.798Z,18.08
2023-07-24T03:04:41.474Z,18.05
2023-07-24T03:07:27.002Z,17.92
2023-07-24T03:10:13.035Z,17.99
2023-07-24T03:12:58.714Z,17.96
2023-07-24T03:15:56.056Z,18.03
2023-07-24T03:18:41.772Z,17.97
2023-07-24T03:21:27.534Z,18.01
2023-07-24T03:24:13.623Z,18.08
2023-07-24T03:26:59.636Z,18.07
2023-07-24T03:29:45.687Z,17.92
2023-07-24T03:32:32.004Z,18.12
2023-07-24T03:35:17.994Z,17.99
2023-07-24T03:38:03.921Z,18.18
2023-07-24T03:40:50.930Z,18.18
2023-07-24T03:43:36.676Z,18.20
2023-07-24T03:46:22.306Z,18.19
2023-07-24T03:49:08.153Z,18.30
2023-07-24T03:51:53.653Z,18.17
2023-07-24T03:54:39.748Z,18.37
2023-07-24T03:57:25.545Z,18.39
2023-07-24T04:00:12.204Z,18.34
2023-07-24T04:02:57.835Z,18.41
2023-07-24T04:05:43.630Z,18.56
2023-07-24T04:08:29.267Z,18.48
2023-07-24T04:11:15.699Z,18.65
2023-07-24T04:14:01.576Z,18.45
2023-07-24T04:16:47.714Z,18.54
2023-07-24T04:19:33.591Z,18.76
2023-07-24T04:22:19.928Z,18.84
2023-07-24T04:25:06.153Z,18.76
2023-07-24T04:27:51.945Z,18.94
2023-07-24T04:30:38.165Z,18.97
2023-07-24T04:33:28.170Z,18.98
2023-07-24T04:36:15.829Z,18.98
2023-07-24T04:39:04.239Z,19.05
2023-07-24T04:41:51.792Z,19.13
2023-07-24T04:44:37.906Z,19.18
2023-07-24T04:47:23.504Z,19.07
2023-07-24T04:50:10.137Z,19.13
2023-07-24T04:52:55.924Z,19.21
2023-07-24T04:55:41.879Z,19.27
2023-07-24T04:58:27.578Z,19.27
2023-07-24T05:01:14.205Z,19.28
2023-07-24T05:03:59.877Z,19.26
2023-07-24T05:06:45.747Z,19.32
2023-07-24T05:09:31.383Z,19.31
2023-07-24T05:12:17.380Z,19.28
2023-07-24T05:15:03.551Z,19.34
2023-07-24T05:17:49.475Z,19.32
2023-07-24T05:20:35.023Z,19.07
2023-07-24T05:23:21.531Z,19.28
2023-07-24T05:26:07.076Z,19.28
2023-07-24T05:28:54.003Z,19.03
2023-07-24T05:31:39.864Z,19.13
2023-07-24T05:34:26.852Z,18.92
2023-07-24T05:37:12.640Z,19.07
2023-07-24T05:39:58.589Z,19.01
2023-07-24T05:42:44.691Z,19.00
2023-07-24T05:45:30.762Z,19.00
2023-07-24T05:48:16.382Z,19.01
2023-07-24T05:51:02.386Z,18.89
2023-07-24T05:53:48.386Z,19.10
2023-07-24T05:56:34.428Z,19.29
2023-07-24T05:59:20.068Z,19.42
2023-07-24T06:02:06.463Z,19.48
2023-07-24T06:04:52.246Z,19.59
2023-07-24T06:07:38.566Z,19.73
2023-07-24T06:10:24.120Z,19.89
2023-07-24T06:13:10.244Z,19.95
2023-07-24T06:15:56.171Z,20.12
2023-07-24T06:18:44.002Z,20.35
2023-07-24T06:21:29.826Z,20.66
2023-07-24T06:24:16.063Z,21.02
2023-07-24T06:27:02.139Z,21.31
2023-07-24T06:29:51.300Z,21.46
2023-07-24T06:32:39.243Z,21.60
2023-07-24T06:35:25.510Z,21.59
2023-07-24T06:38:11.082Z,21.76
2023-07-24T06:40:57.303Z,21.86
2023-07-24T06:43:43.944Z,21.75
2023-07-24T06:46:31.230Z,21.95
2023-07-24T06:49:17.253Z,21.88
2023-07-24T06:52:03.592Z,21.87
2023-07-24T06:54:49.094Z,21.76
2023-07-24T06:57:35.187Z,21.89
2023-07-24T07:00:20.823Z,21.95
2023-07-24T07:03:06.764Z,21.97
2023-07-24T07:05:52.945Z,22.09
2023-07-24T07:08:39.180Z,22.29
2023-07-24T07:11:25.276Z,22.47
2023-07-24T07:14:11.649Z,22.59
2023-07-24T07:16:57.193Z,22.70
2023-07-24T07:19:42.990Z,22.86
2023-07-24T07:22:28.918Z,23.25
2023-07-24T07:25:17.324Z,23.51
2023-07-24T07:28:02.967Z,23.64
2023-07-24T07:30:49.392Z,23.75
2023-07-24T07:33:35.393Z,23.86
2023-07-24T07:36:23.631Z,24.07
2023-07-24T07:39:10.759Z,24.45
2023-07-24T07:42:07.999Z,24.75
2023-07-24T07:45:02.438Z,25.19
2023-07-24T07:47:50.491Z,25.37
2023-07-24T07:50:36.717Z,25.89
2023-07-24T07:53:23.988Z,26.24
2023-07-24T07:56:09.829Z,26.44
2023-07-24T07:58:56.258Z,26.66
2023-07-24T08:01:43.216Z,26.67
2023-07-24T08:04:29.242Z,27.03
2023-07-24T08:07:14.931Z,27.05
2023-07-24T08:10:00.875Z,27.08
2023-07-24T08:12:46.991Z,27.14
2023-07-24T08:15:39.194Z,27.05
2023-07-24T08:18:25.299Z,26.99
2023-07-24T08:21:11.202Z,26.98
2023-07-24T08:23:59.189Z,27.29
2023-07-24T08:26:46.431Z,27.44
2023-07-24T08:29:32.701Z,27.47
2023-07-24T08:32:21.360Z,27.50
2023-07-24T08:35:07.741Z,27.60
2023-07-24T08:38:02.332Z,27.76
2023-07-24T08:40:48.587Z,27.77
2023-07-24T08:43:37.251Z,27.68
2023-07-24T08:46:26.355Z,27.85
2023-07-24T08:49:14.122Z,27.96
2023-07-24T08:52:01.889Z,27.88
2023-07-24T08:54:48.649Z,27.92
2023-07-24T08:57:35.768Z,28.01
2023-07-24T09:00:22.180Z,28.08
2023-07-24T09:03:09.252Z,28.07
2023-07-24T09:05:55.744Z,28.09
2023-07-24T09:08:43.232Z,28.07
2023-07-24T09:11:29.143Z,28.16
2023-07-24T09:14:24.638Z,28.22
2023-07-24T09:17:12.382Z,27.90
2023-07-24T09:19:58.954Z,28.41
2023-07-24T09:23:12.037Z,28.37
2023-07-24T09:26:00.400Z,28.41
2023-07-24T09:28:54.299Z,28.52
2023-07-24T09:31:40.392Z,28.30
2023-07-24T09:34:26.957Z,28.39
2023-07-24T09:37:27.449Z,28.44
2023-07-24T09:40:15.921Z,28.45
2023-07-24T09:45:58.158Z,28.70
2023-07-24T09:51:51.383Z,28.60
2023-07-24T09:54:58.190Z,28.51
2023-07-24T09:57:45.251Z,28.80
2023-07-24T10:00:32.550Z,28.85
2023-07-24T10:03:19.253Z,28.75
2023-07-24T10:06:05.641Z,28.80
2023-07-24T10:08:53.661Z,28.91
2023-07-24T10:11:39.791Z,28.86
2023-07-24T10:14:26.825Z,28.86
2023-07-24T10:17:12.618Z,28.78
2023-07-24T10:20:04.881Z,28.55
2023-07-24T10:22:51.617Z,28.63
2023-07-24T10:25:44.812Z,28.71
2023-07-24T10:28:34.613Z,28.72
2023-07-24T10:31:23.755Z,28.69
2023-07-24T10:34:10.490Z,28.91
2023-07-24T10:37:04.386Z,29.12
2023-07-24T10:39:50.241Z,28.81
2023-07-24T10:42:37.432Z,29.07
2023-07-24T10:45:22.970Z,29.06
2023-07-24T10:48:12.510Z,28.94
2023-07-24T10:50:59.815Z,28.95
2023-07-24T10:53:48.971Z,29.04
2023-07-24T10:56:34.634Z,28.72
2023-07-24T10:59:20.410Z,28.96
2023-07-24T11:02:06.490Z,28.92
2023-07-24T11:04:52.769Z,28.88
2023-07-24T11:07:38.610Z,28.70
2023-07-24T11:10:24.933Z,28.86
2023-07-24T11:13:12.587Z,28.90
2023-07-24T11:16:05.360Z,28.97
2023-07-24T11:18:55.121Z,28.97
2023-07-24T11:21:42.303Z,29.10
2023-07-24T11:24:27.996Z,29.10
2023-07-24T11:27:20.336Z,29.09
2023-07-24T11:30:07.027Z,29.15
2023-07-24T11:32:53.106Z,29.28
2023-07-24T11:35:41.090Z,29.26
2023-07-24T11:38:27.137Z,29.15
2023-07-24T11:41:13.897Z,29.21
2023-07-24T11:44:00.113Z,29.24
2023-07-24T11:46:45.939Z,29.12
2023-07-24T11:49:32.917Z,29.09
2023-07-24T11:52:18.672Z,28.94
2023-07-24T11:55:05.571Z,28.75
2023-07-24T11:58:01.692Z,28.67
2023-07-24T12:00:49.065Z,28.64
2023-07-24T12:03:37.728Z,28.59
2023-07-24T12:06:25.270Z,28.50
2023-07-24T12:09:14.578Z,28.63
2023-07-24T12:12:00.909Z,28.69
2023-07-24T12:14:46.471Z,28.65
2023-07-24T12:17:32.533Z,28.60
2023-07-24T12:20:18.793Z,28.48
2023-07-24T12:23:05.244Z,28.50
2023-07-24T12:25:51.407Z,28.50
2023-07-24T12:28:37.746Z,28.40
2023-07-24T12:31:26.790Z,28.36
2023-07-24T12:34:13.063Z,28.19
2023-07-24T12:36:58.794Z,28.17
2023-07-24T12:39:48.988Z,28.56
2023-07-24T12:42:35.114Z,28.64
2023-07-24T12:45:21.194Z,28.49
2023-07-24T12:48:06.625Z,28.71
2023-07-24T12:50:53.234Z,28.64
2023-07-24T12:53:41.563Z,28.50
2023-07-24T12:56:38.311Z,28.72
2023-07-24T12:59:26.749Z,28.76
2023-07-24T13:02:12.750Z,28.78
2023-07-24T13:04:58.609Z,28.76
2023-07-24T13:07:44.747Z,28.81
2023-07-24T13:10:30.348Z,28.55
2023-07-24T13:13:16.548Z,28.75
2023-07-24T13:16:02.948Z,28.63
2023-07-24T13:18:49.068Z,28.64
2023-07-24T13:21:34.801Z,28.63
2023-07-24T13:24:21.183Z,28.65
2023-07-24T13:27:08.739Z,28.52
2023-07-24T13:29:54.932Z,28.73
2023-07-24T13:32:41.808Z,28.87
2023-07-24T13:35:28.344Z,28.88
2023-07-24T13:38:15.753Z,28.99
2023-07-24T13:41:02.794Z,29.00
2023-07-24T13:43:48.936Z,28.82
2023-07-24T13:46:37.296Z,28.94
2023-07-24T13:49:25.714Z,28.97
2023-07-24T13:52:11.943Z,28.88
2023-07-24T13:54:58.295Z,28.77
2023-07-24T13:57:44.605Z,28.78
2023-07-24T14:00:30.563Z,28.66
2023-07-24T14:03:16.571Z,28.62
2023-07-24T14:06:02.609Z,28.66
2023-07-24T14:08:48.591Z,28.72
2023-07-24T14:11:34.606Z,28.74
2023-07-24T14:14:21.270Z,28.57
2023-07-24T14:17:07.256Z,28.68
2023-07-24T14:19:53.774Z,28.50
2023-07-24T14:22:39.487Z,28.35
2023-07-24T14:25:25.955Z,28.48
2023-07-24T14:28:11.927Z,28.45
2023-07-24T14:30:58.327Z,28.43
2023-07-24T14:33:43.890Z,28.44
2023-07-24T14:36:35.067Z,28.35
2023-07-24T14:39:21.178Z,28.31
2023-07-24T14:42:07.928Z,28.49
2023-07-24T14:44:54.244Z,28.54
2023-07-24T14:47:40.313Z,28.47
2023-07-24T14:50:25.973Z,28.51
2023-07-24T14:53:12.069Z,28.56
2023-07-24T14:55:57.666Z,28.54
2023-07-24T14:58:46.491Z,28.54
2023-07-24T15:01:33.129Z,28.47
2023-07-24T15:04:19.756Z,28.56
2023-07-24T15:07:06.115Z,28.53
2023-07-24T15:09:52.232Z,28.58
2023-07-24T15:12:37.819Z,28.55
2023-07-24T15:15:23.755Z,28.49
2023-07-24T15:18:11.261Z,28.36
2023-07-24T15:20:57.800Z,28.51
2023-07-24T15:23:43.734Z,28.41
2023-07-24T15:26:29.907Z,28.44
2023-07-24T15:29:19.862Z,28.39
2023-07-24T15:32:07.427Z,28.28
2023-07-24T15:34:53.330Z,28.36
2023-07-24T15:37:39.314Z,28.41
2023-07-24T15:40:24.970Z,28.39
2023-07-24T15:43:11.536Z,28.35
2023-07-24T15:45:57.623Z,28.23
2023-07-24T15:48:44.019Z,28.24
2023-07-24T15:51:31.185Z,28.21
2023-07-24T15:54:17.613Z,28.16
2023-07-24T15:57:03.288Z,28.11
2023-07-24T15:59:49.167Z,28.09
2023-07-24T16:02:35.201Z,28.16
2023-07-24T16:05:22.741Z,28.16
2023-07-24T16:08:08.292Z,28.04
2023-07-24T16:10:54.230Z,28.05
2023-07-24T16:13:40.799Z,28.01
2023-07-24T16:16:26.671Z,27.98
2023-07-24T16:19:21.293Z,27.98
2023-07-24T16:22:07.387Z,27.98
2023-07-24T16:24:53.221Z,27.95
2023-07-24T16:27:39.092Z,27.92
2023-07-24T16:30:24.920Z,27.90
2023-07-24T16:33:11.118Z,27.86
2023-07-24T16:35:56.738Z,27.82
2023-07-24T16:38:42.898Z,27.77
2023-07-24T16:41:28.405Z,27.78
2023-07-24T16:44:15.905Z,27.79
2023-07-24T16:49:51.081Z,27.69
2023-07-24T16:52:36.829Z,27.71
2023-07-24T16:55:22.817Z,27.63
2023-07-24T16:58:08.400Z,27.63
2023-07-24T17:00:54.696Z,27.55
2023-07-24T17:03:40.501Z,27.38
2023-07-24T17:06:26.610Z,27.35
2023-07-24T17:09:12.292Z,27.04
2023-07-24T17:11:58.297Z,27.20
2023-07-24T17:14:43.792Z,27.12
2023-07-24T17:17:29.881Z,27.09
2023-07-24T17:20:15.596Z,27.01
2023-07-24T17:23:03.789Z,26.92
2023-07-24T17:25:49.535Z,26.83
2023-07-24T17:28:35.358Z,26.58
2023-07-24T17:31:21.614Z,26.66
2023-07-24T17:34:07.879Z,26.65
2023-07-24T17:36:53.555Z,26.59
2023-07-24T17:39:39.501Z,26.31
2023-07-24T17:42:25.215Z,26.47
2023-07-24T17:45:11.242Z,25.99
2023-07-24T17:47:57.667Z,26.34
2023-07-24T17:50:43.863Z,26.25
2023-07-24T17:53:29.401Z,26.28
2023-07-24T17:56:15.216Z,26.22
2023-07-24T17:59:00.815Z,26.15
2023-07-24T18:01:47.213Z,26.09
2023-07-24T18:04:32.970Z,26.01
2023-07-24T18:07:19.317Z,25.92
2023-07-24T18:10:09.041Z,25.85
2023-07-24T18:12:55.791Z,25.72
2023-07-24T18:15:42.370Z,25.75
2023-07-24T18:18:28.899Z,25.52
2023-07-24T18:21:14.948Z,25.44
2023-07-24T18:24:05.994Z,25.39
2023-07-24T18:26:51.878Z,25.56
2023-07-24T18:29:38.070Z,25.43
2023-07-24T18:32:26.063Z,25.40
2023-07-24T18:35:12.877Z,25.36
2023-07-24T18:37:59.163Z,25.31
2023-07-24T18:40:45.410Z,25.22
2023-07-24T18:43:30.890Z,25.07
2023-07-24T18:46:20.012Z,25.08
2023-07-24T18:49:06.088Z,24.98
2023-07-24T18:51:53.264Z,24.92
2023-07-24T18:54:40.112Z,24.62
2023-07-24T18:57:26.678Z,24.68
2023-07-24T19:00:31.534Z,24.64
2023-07-24T19:03:37.412Z,24.60
2023-07-24T19:06:23.537Z,24.56
2023-07-24T19:09:09.952Z,24.51
2023-07-24T19:11:55.890Z,24.41
2023-07-24T19:14:41.860Z,24.38
2023-07-24T19:17:27.419Z,24.26
2023-07-24T19:20:13.856Z,24.33
2023-07-24T19:23:00.149Z,24.27
2023-07-24T19:25:47.343Z,24.20
2023-07-24T19:28:32.744Z,24.14
2023-07-24T19:31:18.722Z,24.13
2023-07-24T19:34:04.143Z,24.09
2023-07-24T19:36:50.147Z,24.08
2023-07-24T19:39:35.662Z,23.99
2023-07-24T19:42:21.887Z,23.96
2023-07-24T19:45:07.844Z,23.88
2023-07-24T19:47:53.650Z,23.82
2023-07-24T19:50:39.357Z,23.82
2023-07-24T19:53:26.925Z,23.65
2023-07-24T19:56:12.439Z,23.64
2023-07-24T19:58:58.341Z,23.61
2023-07-24T20:01:43.709Z,23.53
2023-07-24T20:04:29.747Z,23.39
2023-07-24T20:07:18.893Z,23.20
2023-07-24T20:10:05.475Z,23.28
2023-07-24T20:12:51.285Z,23.05
2023-07-24T20:15:37.476Z,23.03
2023-07-24T20:18:22.979Z,23.10
2023-07-24T20:21:09.154Z,23.14
2023-07-24T20:23:55.450Z,23.18
2023-07-24T20:26:41.269Z,23.04
2023-07-24T20:29:26.868Z,23.06
2023-07-24T20:32:13.468Z,22.98
2023-07-24T20:34:59.368Z,22.92
2023-07-24T20:37:45.294Z,22.89
2023-07-24T20:40:31.254Z,22.86
2023-07-24T20:43:17.268Z,22.75
2023-07-24T20:46:14.230Z,22.50
2023-07-24T20:49:00.199Z,22.73
2023-07-24T20:51:46.262Z,22.67
2023-07-24T20:54:32.518Z,22.50
2023-07-24T20:57:18.048Z,22.46
2023-07-24T21:00:04.327Z,22.42
2023-07-24T21:02:51.948Z,22.14
2023-07-24T21:05:38.675Z,22.21
2023-07-24T21:08:24.444Z,22.27
2023-07-24T21:11:10.279Z,22.21
2023-07-24T21:13:55.873Z,21.89
2023-07-24T21:16:41.653Z,21.98
2023-07-24T21:19:27.480Z,21.84
2023-07-24T21:22:14.394Z,21.74
2023-07-24T21:25:00.069Z,21.69
2023-07-24T21:27:46.392Z,21.58
2023-07-24T21:30:32.064Z,21.57
2023-07-24T21:33:18.368Z,21.36
2023-07-24T21:36:04.789Z,21.39
2023-07-24T21:38:53.064Z,21.28
2023-07-24T21:41:39.016Z,21.30
2023-07-24T21:44:27.420Z,21.21
2023-07-24T21:47:13.362Z,21.17
2023-07-24T21:50:00.310Z,21.08
2023-07-24T21:52:46.433Z,21.07
2023-07-24T21:55:32.201Z,20.92
2023-07-24T21:58:18.144Z,20.74
2023-07-24T22:01:04.341Z,20.83
2023-07-24T22:03:49.959Z,20.84
2023-07-24T22:06:36.178Z,20.78
2023-07-24T22:09:21.998Z,20.62
2023-07-24T22:12:08.043Z,20.45
2023-07-24T22:14:54.183Z,20.19
2023-07-24T22:17:40.001Z,19.97
2023-07-24T22:23:14.829Z,19.71
2023-07-24T22:26:03.393Z,19.67
2023-07-24T22:28:49.172Z,19.64
2023-07-24T22:31:34.875Z,19.42
2023-07-24T22:34:20.824Z,19.47
2023-07-24T22:37:07.879Z,19.27
2023-07-24T22:39:53.966Z,19.26
2023-07-24T22:42:39.501Z,19.15
2023-07-24T22:45:26.100Z,19.05
2023-07-24T22:48:11.972Z,18.94
2023-07-24T22:50:57.686Z,18.94
2023-07-24T22:53:44.059Z,18.72
2023-07-24T22:56:30.096Z,18.82
2023-07-24T22:59:23.072Z,18.72
2023-07-24T23:02:09.146Z,18.74
2023-07-24T23:04:55.132Z,18.73
2023-07-24T23:07:41.060Z,18.59
2023-07-24T23:10:26.491Z,18.69
2023-07-24T23:13:12.437Z,18.66
2023-07-24T23:16:00.563Z,18.67
2023-07-24T23:18:46.292Z,18.70
2023-07-24T23:21:32.223Z,18.78
2023-07-24T23:24:18.241Z,18.82
2023-07-24T23:27:03.994Z,18.60
2023-07-24T23:29:50.130Z,18.79
2023-07-24T23:32:35.842Z,18.74
2023-07-24T23:35:21.826Z,18.74
2023-07-24T23:38:07.549Z,18.50
2023-07-24T23:41:00.921Z,18.72
2023-07-24T23:43:48.145Z,18.66
2023-07-24T23:46:35.588Z,18.40
2023-07-24T23:49:21.530Z,18.57
2023-07-24T23:52:08.077Z,18.26
2023-07-24T23:54:54.251Z,18.45
2023-07-24T23:57:40.080Z,18.45
